createdAt,value
2022-09-09T00:02:37.694Z,73.75
2022-09-09T00:06:01.681Z,73.51
2022-09-09T00:09:20.985Z,74.42
2022-09-09T00:12:44.312Z,74.80
2022-09-09T00:16:21.069Z,69.46
2022-09-09T00:20:02.475Z,71.15
2022-09-09T00:23:21.572Z,70.41
2022-09-09T00:26:32.200Z,69.60
2022-09-09T00:29:44.606Z,69.78
2022-09-09T00:32:51.401Z,69.63
2022-09-09T00:36:04.983Z,69.67
2022-09-09T00:39:37.840Z,63.72
2022-09-09T00:42:47.897Z,64.83
2022-09-09T00:46:14.086Z,65.63
2022-09-09T00:49:47.675Z,67.32
2022-09-09T00:53:05.063Z,64.27
2022-09-09T00:56:22.562Z,57.49
2022-09-09T00:59:52.762Z,49.70
2022-09-09T01:03:26.253Z,50.20
2022-09-09T01:06:36.282Z,49.60
2022-09-09T01:10:01.088Z,50.59
2022-09-09T01:13:12.959Z,43.75
2022-09-09T01:16:19.705Z,48.50
2022-09-09T01:19:41.162Z,50.02
2022-09-09T01:23:00.570Z,39.48
2022-09-09T01:26:10.155Z,46.59
2022-09-09T01:29:19.168Z,41.80
2022-09-09T01:32:44.866Z,37.36
2022-09-09T01:36:16.739Z,40.25
2022-09-09T01:39:26.364Z,42.58
2022-09-09T01:42:51.769Z,36.41
2022-09-09T01:46:00.925Z,38.88
2022-09-09T01:49:09.024Z,38.73
2022-09-09T01:52:14.244Z,39.05
2022-09-09T01:55:21.901Z,39.10
2022-09-09T01:58:36.895Z,39.05
2022-09-09T02:01:45.058Z,38.58
2022-09-09T02:05:05.920Z,38.61
2022-09-09T02:08:34.651Z,38.74
2022-09-09T02:11:49.941Z,36.51
2022-09-09T02:15:26.108Z,35.18
2022-09-09T02:18:37.508Z,34.68
2022-09-09T02:21:46.258Z,36.89
2022-09-09T02:24:54.054Z,37.95
2022-09-09T02:28:03.094Z,35.25
2022-09-09T02:31:09.095Z,37.93
2022-09-09T02:34:23.226Z,36.46
2022-09-09T02:37:35.116Z,37.27
2022-09-09T02:40:40.262Z,38.10
2022-09-09T02:43:45.291Z,37.04
2022-09-09T02:47:14.757Z,36.80
2022-09-09T02:50:45.875Z,33.79
2022-09-09T02:54:23.170Z,34.14
2022-09-09T02:57:34.363Z,34.25
2022-09-09T03:00:42.506Z,34.57
2022-09-09T03:03:48.314Z,36.85
2022-09-09T03:06:54.939Z,37.53
2022-09-09T03:10:00.240Z,37.21
2022-09-09T03:13:07.473Z,36.69
2022-09-09T03:16:17.002Z,37.50
2022-09-09T03:19:26.402Z,37.58
2022-09-09T03:22:31.208Z,37.78
2022-09-09T03:25:37.809Z,37.43
2022-09-09T03:28:46.741Z,36.13
2022-09-09T03:31:55.390Z,38.06
2022-09-09T03:35:00.302Z,38.70
2022-09-09T03:38:07.043Z,38.10
2022-09-09T03:41:14.680Z,38.16
2022-09-09T03:44:20.795Z,39.28
2022-09-09T03:47:26.179Z,39.43
2022-09-09T03:50:35.925Z,40.22
2022-09-09T03:53:41.669Z,39.55
2022-09-09T03:56:47.592Z,40.08
2022-09-09T03:59:53.421Z,40.21
2022-09-09T04:02:59.659Z,39.52
2022-09-09T04:06:06.626Z,41.75
2022-09-09T04:09:11.283Z,40.89
2022-09-09T04:12:16.523Z,40.98
2022-09-09T04:15:21.314Z,40.97
2022-09-09T04:18:27.877Z,40.08
2022-09-09T04:21:33.131Z,37.70
2022-09-09T04:24:39.088Z,39.44
2022-09-09T04:27:44.851Z,39.39
2022-09-09T04:30:50.686Z,38.73
2022-09-09T04:33:56.065Z,38.27
2022-09-09T04:37:01.510Z,37.54
2022-09-09T04:40:07.871Z,35.87
2022-09-09T04:43:14.700Z,38.50
2022-09-09T04:46:21.632Z,38.58
2022-09-09T04:49:27.876Z,38.42
2022-09-09T04:52:33.611Z,38.60
2022-09-09T04:55:39.520Z,38.28
2022-09-09T04:58:45.364Z,37.24
2022-09-09T05:01:52.387Z,38.56
2022-09-09T05:04:58.944Z,37.43
2022-09-09T05:08:08.078Z,39.33
2022-09-09T05:11:23.710Z,37.90
2022-09-09T05:14:30.264Z,38.36
2022-09-09T05:17:35.783Z,38.70
2022-09-09T05:20:40.433Z,38.66
2022-09-09T05:23:47.764Z,39.00
2022-09-09T05:26:52.580Z,38.87
2022-09-09T05:29:58.898Z,39.36
2022-09-09T05:33:03.770Z,38.90
2022-09-09T05:36:11.010Z,39.11
2022-09-09T05:39:15.771Z,39.49
2022-09-09T05:42:20.750Z,39.54
2022-09-09T05:45:25.807Z,39.59
2022-09-09T05:48:32.365Z,39.59
2022-09-09T05:51:55.743Z,40.08
2022-09-09T05:55:01.654Z,40.39
2022-09-09T05:58:06.953Z,41.29
2022-09-09T06:01:17.781Z,40.80
2022-09-09T06:04:24.363Z,40.15
2022-09-09T06:07:29.569Z,40.69
2022-09-09T06:10:34.226Z,40.74
2022-09-09T06:13:41.231Z,40.12
2022-09-09T06:16:47.152Z,39.99
2022-09-09T06:19:57.774Z,40.53
2022-09-09T06:23:02.662Z,39.66
2022-09-09T06:26:20.084Z,40.97
2022-09-09T06:29:27.414Z,40.65
2022-09-09T06:32:32.393Z,39.84
2022-09-09T06:35:38.127Z,40.52
2022-09-09T06:38:46.457Z,41.08
2022-09-09T06:41:54.920Z,41.30
2022-09-09T06:45:17.972Z,41.81
2022-09-09T06:48:30.297Z,42.67
2022-09-09T06:51:38.199Z,42.50
2022-09-09T06:54:43.805Z,42.16
2022-09-09T06:57:48.537Z,42.10
2022-09-09T07:01:09.298Z,41.29
2022-09-09T07:04:15.989Z,41.77
2022-09-09T07:07:22.936Z,42.68
2022-09-09T07:10:28.182Z,43.01
2022-09-09T07:13:33.876Z,41.56
2022-09-09T07:16:41.595Z,42.14
2022-09-09T07:19:47.202Z,42.18
2022-09-09T07:22:58.156Z,39.72
2022-09-09T07:26:04.052Z,42.70
2022-09-09T07:29:10.055Z,43.13
2022-09-09T07:32:14.796Z,42.24
2022-09-09T07:35:19.615Z,42.16
2022-09-09T07:38:24.659Z,42.29
2022-09-09T07:41:36.891Z,41.87
2022-09-09T07:44:42.053Z,42.71
2022-09-09T07:47:52.642Z,43.27
2022-09-09T07:51:13.662Z,44.52
2022-09-09T07:54:25.424Z,44.66
2022-09-09T07:57:34.532Z,46.02
2022-09-09T08:00:41.928Z,46.79
2022-09-09T08:03:48.730Z,46.88
2022-09-09T08:06:58.103Z,46.42
2022-09-09T08:10:04.510Z,46.99
2022-09-09T08:13:18.277Z,48.64
2022-09-09T08:16:33.911Z,50.08
2022-09-09T08:19:38.912Z,50.83
2022-09-09T08:22:55.197Z,51.19
2022-09-09T08:26:07.213Z,51.25
2022-09-09T08:29:15.505Z,51.77
2022-09-09T08:32:23.915Z,51.44
2022-09-09T08:35:29.499Z,51.86
2022-09-09T08:38:35.575Z,55.44
2022-09-09T08:41:46.145Z,56.50
2022-09-09T08:45:22.530Z,56.17
2022-09-09T08:48:56.101Z,55.01
2022-09-09T08:52:03.253Z,54.18
2022-09-09T08:55:41.032Z,56.10
2022-09-09T08:58:51.286Z,56.05
2022-09-09T09:02:47.399Z,58.85
2022-09-09T09:06:24.678Z,58.05
2022-09-09T09:09:43.145Z,59.10
2022-09-09T09:12:49.399Z,58.82
2022-09-09T09:16:04.512Z,60.03
2022-09-09T09:19:17.443Z,60.96
2022-09-09T09:22:48.296Z,62.78
2022-09-09T09:26:01.240Z,62.23
2022-09-09T09:29:24.143Z,63.52
2022-09-09T09:32:35.980Z,63.59
2022-09-09T09:35:44.392Z,62.65
2022-09-09T09:42:27.701Z,61.82
2022-09-09T09:46:06.920Z,62.97
2022-09-09T09:49:12.748Z,63.57
2022-09-09T09:52:22.542Z,64.56
2022-09-09T09:55:28.939Z,65.23
2022-09-09T09:58:36.262Z,65.59
2022-09-09T10:01:41.009Z,66.69
2022-09-09T10:04:49.320Z,67.61
2022-09-09T10:08:30.235Z,69.68
2022-09-09T10:11:58.042Z,69.14
2022-09-09T10:15:08.527Z,68.35
2022-09-09T10:18:28.724Z,68.86
2022-09-09T10:21:51.635Z,68.09
2022-09-09T10:25:33.180Z,70.84
2022-09-09T10:28:54.888Z,72.39
2022-09-09T10:32:13.528Z,72.96
2022-09-09T10:35:29.657Z,71.27
2022-09-09T10:38:50.392Z,70.85
2022-09-09T10:42:11.666Z,69.08
2022-09-09T10:45:53.053Z,70.55
2022-09-09T10:49:22.835Z,71.18
2022-09-09T10:52:34.020Z,72.83
2022-09-09T10:55:43.945Z,72.76
2022-09-09T10:59:11.872Z,73.98
2022-09-09T11:02:24.353Z,72.65
2022-09-09T11:05:51.955Z,72.74
2022-09-09T11:08:58.032Z,72.19
2022-09-09T11:12:04.292Z,72.26
2022-09-09T11:15:20.631Z,74.43
2022-09-09T11:18:26.116Z,73.97
2022-09-09T11:21:34.000Z,75.69
2022-09-09T11:24:47.998Z,73.65
2022-09-09T11:28:01.683Z,75.09
2022-09-09T11:31:47.049Z,77.44
2022-09-09T11:34:58.855Z,76.02
2022-09-09T11:38:27.639Z,76.12
2022-09-09T11:41:39.460Z,76.45
2022-09-09T11:44:44.987Z,76.21
2022-09-09T11:48:02.017Z,76.51
2022-09-09T11:51:16.053Z,75.88
2022-09-09T11:54:47.296Z,77.33
2022-09-09T11:58:06.830Z,77.00
2022-09-09T12:01:31.872Z,77.87
2022-09-09T12:05:10.673Z,77.65
2022-09-09T12:08:24.378Z,76.55
2022-09-09T12:11:53.581Z,78.57
2022-09-09T12:15:01.160Z,78.73
2022-09-09T12:18:17.071Z,78.17
2022-09-09T12:21:37.769Z,78.77
2022-09-09T12:25:08.797Z,81.08
2022-09-09T12:28:43.692Z,81.02
2022-09-09T12:32:07.370Z,79.89
2022-09-09T12:35:28.493Z,77.04
2022-09-09T12:38:38.656Z,78.68
2022-09-09T12:41:43.585Z,79.79
2022-09-09T12:45:00.670Z,80.52
2022-09-09T12:48:17.547Z,78.36
2022-09-09T12:51:33.999Z,77.98
2022-09-09T12:54:39.974Z,78.22
2022-09-09T12:57:45.796Z,78.97
2022-09-09T13:00:59.363Z,82.23
2022-09-09T13:04:04.911Z,79.74
2022-09-09T13:07:12.053Z,80.02
2022-09-09T13:10:36.172Z,77.00
2022-09-09T13:13:43.892Z,77.97
2022-09-09T13:17:05.424Z,79.20
2022-09-09T13:20:20.869Z,77.67
2022-09-09T13:23:30.280Z,78.28
2022-09-09T13:26:36.451Z,78.70
2022-09-09T13:29:42.903Z,79.56
2022-09-09T13:32:48.112Z,80.37
2022-09-09T13:36:08.355Z,82.51
2022-09-09T13:39:22.373Z,82.77
2022-09-09T13:42:33.343Z,82.80
2022-09-09T13:45:41.224Z,80.28
2022-09-09T13:48:59.300Z,78.93
2022-09-09T13:52:12.473Z,78.50
2022-09-09T13:55:17.658Z,78.59
2022-09-09T13:58:23.497Z,80.16
2022-09-09T14:01:29.802Z,80.90
2022-09-09T14:04:37.037Z,80.52
2022-09-09T14:07:43.748Z,79.13
2022-09-09T14:10:48.469Z,80.30
2022-09-09T14:13:53.414Z,82.23
2022-09-09T14:16:58.162Z,81.22
2022-09-09T14:20:03.399Z,81.50
2022-09-09T14:23:08.545Z,81.63
2022-09-09T14:26:13.283Z,82.70
2022-09-09T14:29:18.694Z,82.15
2022-09-09T14:32:23.935Z,81.19
2022-09-09T14:35:28.915Z,80.89
2022-09-09T14:38:44.704Z,82.72
2022-09-09T14:41:49.733Z,82.99
2022-09-09T14:44:54.853Z,82.92
2022-09-09T14:48:01.578Z,82.87
2022-09-09T14:51:12.111Z,83.78
2022-09-09T14:54:17.259Z,83.68
2022-09-09T14:57:22.119Z,83.36
2022-09-09T15:00:27.180Z,83.08
2022-09-09T15:03:32.132Z,82.71
2022-09-09T15:06:41.900Z,81.58
2022-09-09T15:09:46.746Z,81.24
2022-09-09T15:12:51.478Z,82.70
2022-09-09T15:15:56.508Z,82.40
2022-09-09T15:19:03.577Z,82.63
2022-09-09T15:22:09.286Z,82.34
2022-09-09T15:25:14.393Z,84.40
2022-09-09T15:28:19.813Z,85.23
2022-09-09T15:31:26.263Z,85.36
2022-09-09T15:34:31.015Z,84.87
2022-09-09T15:37:35.756Z,84.88
2022-09-09T15:40:40.547Z,84.67
2022-09-09T15:43:47.919Z,84.56
2022-09-09T15:46:55.669Z,84.98
2022-09-09T15:50:00.700Z,83.67
2022-09-09T15:53:07.978Z,84.23
2022-09-09T15:56:12.964Z,84.99
2022-09-09T15:59:17.985Z,85.53
2022-09-09T16:02:23.724Z,84.88
2022-09-09T16:05:28.665Z,85.32
2022-09-09T16:08:38.425Z,85.11
2022-09-09T16:11:43.125Z,85.27
2022-09-09T16:14:47.871Z,84.66
2022-09-09T16:17:55.530Z,84.47
2022-09-09T16:21:00.325Z,82.80
2022-09-09T16:24:06.464Z,84.27
2022-09-09T16:27:11.457Z,85.19
2022-09-09T16:30:16.476Z,85.48
2022-09-09T16:33:20.960Z,86.40
2022-09-09T16:36:28.007Z,86.10
2022-09-09T16:39:33.000Z,85.52
2022-09-09T16:42:39.648Z,85.78
2022-09-09T16:45:46.447Z,86.27
2022-09-09T16:48:51.784Z,85.70
2022-09-09T16:51:59.492Z,85.28
2022-09-09T16:55:04.456Z,84.94
2022-09-09T16:58:10.722Z,84.65
2022-09-09T17:01:16.279Z,85.71
2022-09-09T17:04:25.445Z,86.31
2022-09-09T17:07:30.249Z,86.17
2022-09-09T17:10:34.624Z,85.13
2022-09-09T17:13:43.574Z,84.31
2022-09-09T17:16:51.826Z,83.12
2022-09-09T17:19:56.929Z,83.88
2022-09-09T17:23:01.580Z,84.51
2022-09-09T17:26:11.423Z,84.32
2022-09-09T17:29:16.472Z,83.33
2022-09-09T17:32:21.128Z,83.02
2022-09-09T17:35:25.808Z,83.55
2022-09-09T17:38:31.477Z,84.54
2022-09-09T17:41:38.312Z,85.67
2022-09-09T17:44:43.872Z,85.19
2022-09-09T17:47:49.637Z,84.59
2022-09-09T17:51:00.696Z,85.19
2022-09-09T17:54:11.519Z,86.17
2022-09-09T17:57:17.288Z,87.63
2022-09-09T18:00:21.509Z,87.68
2022-09-09T18:03:26.663Z,86.04
2022-09-09T18:06:37.241Z,85.60
2022-09-09T18:09:43.508Z,84.27
2022-09-09T18:12:48.078Z,85.00
2022-09-09T18:15:53.098Z,85.14
2022-09-09T18:19:00.219Z,85.15
2022-09-09T18:22:08.452Z,84.75
2022-09-09T18:25:12.915Z,85.46
2022-09-09T18:28:17.370Z,88.26
2022-09-09T18:31:24.823Z,88.98
2022-09-09T18:34:31.072Z,89.82
2022-09-09T18:37:37.038Z,90.54
2022-09-09T18:40:41.773Z,89.57
2022-09-09T18:43:46.906Z,89.70
2022-09-09T18:46:53.366Z,88.48
2022-09-09T18:49:57.981Z,87.78
2022-09-09T18:53:02.844Z,88.22
2022-09-09T18:56:09.978Z,86.94
2022-09-09T18:59:19.997Z,87.70
2022-09-09T19:02:24.799Z,88.05
2022-09-09T19:05:29.542Z,88.68
2022-09-09T19:08:38.973Z,87.83
2022-09-09T19:11:44.404Z,86.70
2022-09-09T19:14:49.396Z,86.28
2022-09-09T19:17:54.045Z,86.19
2022-09-09T19:20:58.875Z,86.21
2022-09-09T19:24:09.872Z,86.66
2022-09-09T19:27:14.565Z,85.77
2022-09-09T19:30:19.187Z,85.54
2022-09-09T19:33:24.022Z,87.19
2022-09-09T19:36:28.845Z,88.41
2022-09-09T19:39:35.264Z,88.93
2022-09-09T19:42:41.632Z,88.98
2022-09-09T19:45:46.305Z,90.19
2022-09-09T19:48:51.019Z,89.59
2022-09-09T19:51:56.762Z,89.65
2022-09-09T19:55:02.202Z,90.78
2022-09-09T19:58:08.496Z,88.14
2022-09-09T20:01:17.833Z,86.88
2022-09-09T20:04:23.176Z,86.06
2022-09-09T20:07:27.915Z,86.54
2022-09-09T20:10:32.824Z,87.53
2022-09-09T20:13:42.796Z,88.10
2022-09-09T20:16:47.816Z,88.31
2022-09-09T20:19:52.627Z,88.82
2022-09-09T20:22:58.451Z,88.39
2022-09-09T20:26:14.294Z,87.96
2022-09-09T20:29:20.913Z,87.69
2022-09-09T20:32:25.601Z,87.80
2022-09-09T20:35:30.220Z,87.84
2022-09-09T20:38:35.284Z,88.14
2022-09-09T20:41:41.435Z,88.23
2022-09-09T20:44:46.081Z,88.32
2022-09-09T20:47:51.382Z,88.25
2022-09-09T20:50:56.432Z,87.95
2022-09-09T20:54:04.738Z,88.00
2022-09-09T20:57:09.625Z,88.87
2022-09-09T21:00:15.765Z,88.69
2022-09-09T21:03:20.318Z,88.65
2022-09-09T21:06:24.969Z,88.54
2022-09-09T21:09:29.779Z,87.36
2022-09-09T21:12:34.497Z,82.43
2022-09-09T21:15:39.050Z,81.40
2022-09-09T21:18:45.306Z,82.35
2022-09-09T21:21:50.035Z,82.87
2022-09-09T21:24:55.333Z,83.55
2022-09-09T21:28:00.059Z,82.03
2022-09-09T21:31:06.513Z,80.27
2022-09-09T21:34:11.267Z,78.97
2022-09-09T21:37:15.852Z,78.12
2022-09-09T21:40:21.813Z,77.93
2022-09-09T21:43:26.464Z,75.81
2022-09-09T21:46:32.333Z,72.55
2022-09-09T21:49:37.357Z,70.43
2022-09-09T21:52:42.249Z,68.01
2022-09-09T21:55:48.602Z,66.38
2022-09-09T21:58:58.921Z,64.54
2022-09-09T22:02:03.852Z,62.94
2022-09-09T22:05:08.684Z,61.67
2022-09-09T22:08:15.303Z,60.82
2022-09-09T22:11:23.242Z,58.20
2022-09-09T22:14:28.507Z,60.10
2022-09-09T22:17:33.552Z,62.21
2022-09-09T22:20:44.835Z,62.56
2022-09-09T22:23:54.698Z,63.30
2022-09-09T22:26:59.477Z,65.61
2022-09-09T22:30:04.476Z,66.47
2022-09-09T22:33:10.518Z,67.85
2022-09-09T22:36:15.762Z,67.45
2022-09-09T22:39:20.481Z,67.30
2022-09-09T22:42:25.184Z,67.65
2022-09-09T22:45:29.611Z,68.78
2022-09-09T22:48:35.630Z,67.93
2022-09-09T22:51:40.779Z,67.81
2022-09-09T22:54:46.953Z,68.83
2022-09-09T22:57:51.738Z,68.83
2022-09-09T23:01:00.241Z,68.59
2022-09-09T23:04:05.481Z,68.68
2022-09-09T23:07:10.437Z,68.15
2022-09-09T23:10:17.023Z,68.45
2022-09-09T23:13:21.678Z,67.91
2022-09-09T23:16:38.307Z,68.03
2022-09-09T23:19:44.500Z,67.96
2022-09-09T23:22:49.331Z,67.66
2022-09-09T23:25:54.106Z,65.60
2022-09-09T23:29:03.305Z,64.39
2022-09-09T23:32:08.254Z,63.75
2022-09-09T23:35:12.901Z,64.00
2022-09-09T23:38:17.765Z,65.07
2022-09-09T23:41:22.519Z,66.50
2022-09-09T23:44:27.540Z,66.77
2022-09-09T23:47:32.044Z,66.95
2022-09-09T23:50:36.628Z,67.28
2022-09-09T23:53:41.887Z,66.70
2022-09-09T23:56:46.980Z,67.25
2022-09-09T23:59:51.652Z,67.80
